createdAt,value
2022-09-21T00:01:37.526Z,3.63
2022-09-21T00:04:05.800Z,4.57
2022-09-21T00:06:35.731Z,4.47
2022-09-21T00:09:05.129Z,5.97
2022-09-21T00:11:34.350Z,3.33
2022-09-21T00:14:07.984Z,4.03
2022-09-21T00:16:38.202Z,2.00
2022-09-21T00:19:07.141Z,2.47
2022-09-21T00:21:36.087Z,2.37
2022-09-21T00:24:04.359Z,1.60
2022-09-21T00:26:33.090Z,5.87
2022-09-21T00:29:03.782Z,3.30
2022-09-21T00:31:32.772Z,5.83
2022-09-21T00:34:03.550Z,3.17
2022-09-21T00:36:31.686Z,2.87
2022-09-21T00:39:02.736Z,1.40
2022-09-21T00:41:33.988Z,1.83
2022-09-21T00:44:31.689Z,2.40
2022-09-21T00:47:05.496Z,3.17
2022-09-21T00:49:41.050Z,3.83
2022-09-21T00:52:12.044Z,1.80
2022-09-21T00:54:46.182Z,4.90
2022-09-21T00:57:16.842Z,7.13
2022-09-21T00:59:46.257Z,2.57
2022-09-21T01:02:15.289Z,2.73
2022-09-21T01:04:46.091Z,4.33
2022-09-21T01:07:20.036Z,3.23
2022-09-21T01:09:53.375Z,3.20
2022-09-21T01:12:40.642Z,3.67
2022-09-21T01:15:26.746Z,4.53
2022-09-21T01:18:05.981Z,2.80
2022-09-21T01:21:09.905Z,4.70
2022-09-21T01:24:19.821Z,6.97
2022-09-21T01:27:47.573Z,6.17
2022-09-21T01:30:20.134Z,6.43
2022-09-21T01:32:53.697Z,6.67
2022-09-21T01:35:27.720Z,4.60
2022-09-21T01:37:59.878Z,5.77
2022-09-21T01:40:36.024Z,3.40
2022-09-21T01:43:08.048Z,3.93
2022-09-21T01:45:42.727Z,3.67
2022-09-21T01:48:11.630Z,4.50
2022-09-21T01:50:46.771Z,5.37
2022-09-21T01:53:22.481Z,2.93
2022-09-21T01:55:54.352Z,3.07
2022-09-21T01:58:32.000Z,3.27
2022-09-21T02:01:02.029Z,4.37
2022-09-21T02:03:37.127Z,3.77
2022-09-21T02:06:06.922Z,3.20
2022-09-21T02:08:35.547Z,3.83
2022-09-21T02:11:05.637Z,3.00
2022-09-21T02:13:39.589Z,5.37
2022-09-21T02:16:37.091Z,2.33
2022-09-21T02:19:14.120Z,3.67
2022-09-21T02:21:58.278Z,3.73
2022-09-21T02:24:40.024Z,2.50
2022-09-21T02:27:16.855Z,2.27
2022-09-21T02:29:52.757Z,2.43
2022-09-21T02:32:35.155Z,2.57
2022-09-21T02:35:09.164Z,2.37
2022-09-21T02:37:44.883Z,2.83
2022-09-21T02:40:24.678Z,4.40
2022-09-21T02:42:59.446Z,4.43
2022-09-21T02:45:32.899Z,2.83
2022-09-21T02:48:08.819Z,3.30
2022-09-21T02:50:43.452Z,2.57
2022-09-21T02:53:13.606Z,3.57
2022-09-21T02:55:42.231Z,2.67
2022-09-21T02:58:13.514Z,3.03
2022-09-21T03:00:41.901Z,4.40
2022-09-21T03:03:20.050Z,4.50
2022-09-21T03:05:51.817Z,4.10
2022-09-21T03:08:20.687Z,6.17
2022-09-21T03:10:50.038Z,6.33
2022-09-21T03:13:18.752Z,4.43
2022-09-21T03:15:47.226Z,6.57
2022-09-21T03:18:17.086Z,5.87
2022-09-21T03:20:47.009Z,3.43
2022-09-21T03:23:15.715Z,3.10
2022-09-21T03:25:46.017Z,2.87
2022-09-21T03:28:15.273Z,7.77
2022-09-21T03:30:43.829Z,3.23
2022-09-21T03:33:12.856Z,2.03
2022-09-21T03:35:42.614Z,4.53
2022-09-21T03:38:11.015Z,3.93
2022-09-21T03:40:39.140Z,3.90
2022-09-21T03:43:07.239Z,2.23
2022-09-21T03:45:35.959Z,2.63
2022-09-21T03:48:04.306Z,3.40
2022-09-21T03:50:32.279Z,2.67
2022-09-21T03:53:01.775Z,4.00
2022-09-21T03:55:29.747Z,6.17
2022-09-21T03:57:57.819Z,3.77
2022-09-21T04:00:30.196Z,3.50
2022-09-21T04:02:58.338Z,3.37
2022-09-21T04:05:27.675Z,3.73
2022-09-21T04:07:57.345Z,4.73
2022-09-21T04:10:33.083Z,4.07
2022-09-21T04:13:03.396Z,3.00
2022-09-21T04:15:32.053Z,5.03
2022-09-21T04:18:00.221Z,4.80
2022-09-21T04:20:28.391Z,4.97
2022-09-21T04:22:56.387Z,6.23
2022-09-21T04:25:25.897Z,3.37
2022-09-21T04:27:54.373Z,4.80
2022-09-21T04:30:22.337Z,5.70
2022-09-21T04:32:50.387Z,5.20
2022-09-21T04:35:18.537Z,3.93
2022-09-21T04:37:46.544Z,4.13
2022-09-21T04:40:14.607Z,3.27
2022-09-21T04:42:43.945Z,5.27
2022-09-21T04:45:12.468Z,4.13
2022-09-21T04:47:40.533Z,4.73
2022-09-21T04:50:10.064Z,3.63
2022-09-21T04:52:38.121Z,3.93
2022-09-21T04:55:07.448Z,2.13
2022-09-21T04:57:36.333Z,3.50
2022-09-21T05:00:08.135Z,4.60
2022-09-21T05:02:36.213Z,3.33
2022-09-21T05:05:04.524Z,3.27
2022-09-21T05:07:32.519Z,4.27
2022-09-21T05:10:05.393Z,2.60
2022-09-21T05:12:34.259Z,4.03
2022-09-21T05:15:02.942Z,6.07
2022-09-21T05:17:32.303Z,3.63
2022-09-21T05:20:00.422Z,6.20
2022-09-21T05:22:29.521Z,3.13
2022-09-21T05:24:57.646Z,5.00
2022-09-21T05:27:25.773Z,4.60
2022-09-21T05:29:54.686Z,3.60
2022-09-21T05:32:28.784Z,6.70
2022-09-21T05:35:13.782Z,3.57
2022-09-21T05:37:52.849Z,6.07
2022-09-21T05:40:22.125Z,2.70
2022-09-21T05:42:51.112Z,7.67
2022-09-21T05:45:22.978Z,3.23
2022-09-21T05:48:12.147Z,3.73
2022-09-21T05:50:53.993Z,6.10
2022-09-21T05:53:49.715Z,4.37
2022-09-21T05:56:39.674Z,4.53
2022-09-21T05:59:29.390Z,5.77
2022-09-21T06:02:07.853Z,4.73
2022-09-21T06:04:36.747Z,2.83
2022-09-21T06:07:06.134Z,5.87
2022-09-21T06:09:34.193Z,5.40
2022-09-21T06:12:02.570Z,3.67
2022-09-21T06:14:30.608Z,5.67
2022-09-21T06:16:58.861Z,7.07
2022-09-21T06:19:26.992Z,7.63
2022-09-21T06:21:55.236Z,5.20
2022-09-21T06:24:25.382Z,7.73
2022-09-21T06:26:53.544Z,6.80
2022-09-21T06:29:23.632Z,6.83
2022-09-21T06:31:52.003Z,6.83
2022-09-21T06:34:20.046Z,4.00
2022-09-21T06:36:48.123Z,6.33
2022-09-21T06:39:16.266Z,9.07
2022-09-21T06:41:45.566Z,4.73
2022-09-21T06:44:13.519Z,6.63
2022-09-21T06:46:41.530Z,5.57
2022-09-21T06:49:09.605Z,8.67
2022-09-21T06:51:37.627Z,6.53
2022-09-21T06:54:06.422Z,4.67
2022-09-21T06:56:34.417Z,7.07
2022-09-21T06:59:03.837Z,9.73
2022-09-21T07:01:31.953Z,6.17
2022-09-21T07:04:00.086Z,7.83
2022-09-21T07:06:29.343Z,9.23
2022-09-21T07:11:47.329Z,5.83
2022-09-21T07:14:16.689Z,7.37
2022-09-21T07:16:45.167Z,10.97
2022-09-21T07:19:13.212Z,8.60
2022-09-21T07:21:41.281Z,7.07
2022-09-21T07:24:12.512Z,6.40
2022-09-21T07:26:42.163Z,7.03
2022-09-21T07:29:10.308Z,8.57
2022-09-21T07:31:39.884Z,10.47
2022-09-21T07:34:12.253Z,7.60
2022-09-21T07:36:40.284Z,5.83
2022-09-21T07:39:10.505Z,9.00
2022-09-21T07:41:38.796Z,10.27
2022-09-21T07:44:06.934Z,6.50
2022-09-21T07:46:36.084Z,9.60
2022-09-21T07:49:06.629Z,6.20
2022-09-21T07:51:36.697Z,9.63
2022-09-21T07:54:05.023Z,12.63
2022-09-21T07:56:33.007Z,6.40
2022-09-21T07:59:06.781Z,11.57
2022-09-21T08:01:36.610Z,7.87
2022-09-21T08:04:08.322Z,6.93
2022-09-21T08:06:40.060Z,6.40
2022-09-21T08:09:08.555Z,7.80
2022-09-21T08:11:38.339Z,9.67
2022-09-21T08:14:06.566Z,8.30
2022-09-21T08:16:35.826Z,6.33
2022-09-21T08:19:06.059Z,9.37
2022-09-21T08:21:34.461Z,9.60
2022-09-21T08:24:02.937Z,6.47
2022-09-21T08:26:30.978Z,10.53
2022-09-21T08:28:59.207Z,11.37
2022-09-21T08:31:27.686Z,5.37
2022-09-21T08:33:57.581Z,9.10
2022-09-21T08:36:27.106Z,8.57
2022-09-21T08:38:56.747Z,8.03
2022-09-21T08:41:30.087Z,7.70
2022-09-21T08:44:04.641Z,5.80
2022-09-21T08:46:35.032Z,5.80
2022-09-21T08:49:08.135Z,6.07
2022-09-21T08:51:46.014Z,6.03
2022-09-21T08:54:21.899Z,6.30
2022-09-21T08:57:04.564Z,6.17
2022-09-21T08:59:34.412Z,5.23
2022-09-21T09:02:19.092Z,8.10
2022-09-21T09:05:01.044Z,6.90
2022-09-21T09:08:00.652Z,9.13
2022-09-21T09:10:39.000Z,5.17
2022-09-21T09:13:31.160Z,9.10
2022-09-21T09:16:13.672Z,7.97
2022-09-21T09:18:48.049Z,4.77
2022-09-21T09:21:29.850Z,4.77
2022-09-21T09:24:05.312Z,3.63
2022-09-21T09:26:42.667Z,3.67
2022-09-21T09:29:23.383Z,4.27
2022-09-21T09:31:55.375Z,4.80
2022-09-21T09:34:31.347Z,6.87
2022-09-21T09:37:06.764Z,2.20
2022-09-21T09:39:36.247Z,4.83
2022-09-21T09:42:22.878Z,5.63
2022-09-21T09:45:22.539Z,4.80
2022-09-21T09:48:34.366Z,2.77
2022-09-21T09:51:02.512Z,2.80
2022-09-21T09:53:31.609Z,5.07
2022-09-21T09:56:02.632Z,2.57
2022-09-21T09:58:42.426Z,1.70
2022-09-21T10:01:10.607Z,4.33
2022-09-21T10:03:38.676Z,1.87
2022-09-21T10:06:07.973Z,2.60
2022-09-21T10:08:46.453Z,2.07
2022-09-21T10:11:17.706Z,2.23
2022-09-21T10:13:48.563Z,2.53
2022-09-21T10:16:22.697Z,2.87
2022-09-21T10:18:56.435Z,3.10
2022-09-21T10:21:27.279Z,1.07
2022-09-21T10:24:00.268Z,2.33
2022-09-21T10:26:37.734Z,3.07
2022-09-21T10:29:21.752Z,2.47
2022-09-21T10:31:57.276Z,2.33
2022-09-21T10:34:27.827Z,1.60
2022-09-21T10:36:58.163Z,1.73
2022-09-21T10:39:29.706Z,6.93
2022-09-21T10:42:04.388Z,2.93
2022-09-21T10:44:41.331Z,3.70
2022-09-21T10:47:21.374Z,3.27
2022-09-21T10:49:52.967Z,2.70
2022-09-21T10:52:25.663Z,0.60
2022-09-21T10:54:57.089Z,3.13
2022-09-21T10:57:28.910Z,2.13
2022-09-21T10:59:57.559Z,3.50
2022-09-21T11:02:34.858Z,2.43
2022-09-21T11:05:15.283Z,2.33
2022-09-21T11:07:50.733Z,6.13
2022-09-21T11:10:25.198Z,0.70
2022-09-21T11:13:12.600Z,2.57
2022-09-21T11:15:57.057Z,1.20
2022-09-21T11:18:40.343Z,3.07
2022-09-21T11:21:18.744Z,2.57
2022-09-21T11:24:03.110Z,3.23
2022-09-21T11:26:40.666Z,2.80
2022-09-21T11:29:19.035Z,2.40
2022-09-21T11:32:09.047Z,2.60
2022-09-21T11:35:03.635Z,2.20
2022-09-21T11:37:51.138Z,3.63
2022-09-21T11:40:40.446Z,3.93
2022-09-21T11:43:24.093Z,3.07
2022-09-21T11:46:06.847Z,1.33
2022-09-21T11:48:56.949Z,2.20
2022-09-21T11:51:45.286Z,4.03
2022-09-21T11:54:50.136Z,2.87
2022-09-21T11:57:26.910Z,1.97
2022-09-21T12:00:15.635Z,1.10
2022-09-21T12:03:44.865Z,2.70
2022-09-21T12:06:27.080Z,2.50
2022-09-21T12:09:39.221Z,1.10
2022-09-21T12:12:14.499Z,0.80
2022-09-21T12:14:51.519Z,1.53
2022-09-21T12:17:29.410Z,1.33
2022-09-21T12:20:13.133Z,0.90
2022-09-21T12:22:44.822Z,3.23
2022-09-21T12:25:19.524Z,2.63
2022-09-21T12:27:53.163Z,1.73
2022-09-21T12:30:23.602Z,1.60
2022-09-21T12:33:00.114Z,3.03
2022-09-21T12:35:39.211Z,2.30
2022-09-21T12:38:17.679Z,0.80
2022-09-21T12:40:53.151Z,1.47
2022-09-21T12:43:34.897Z,0.73
2022-09-21T12:46:08.817Z,1.70
2022-09-21T12:48:39.858Z,0.90
2022-09-21T12:51:17.280Z,1.30
2022-09-21T12:53:51.052Z,2.83
2022-09-21T12:56:37.426Z,0.70
2022-09-21T12:59:22.669Z,0.63
2022-09-21T13:01:58.248Z,1.80
2022-09-21T13:04:43.623Z,2.30
2022-09-21T13:08:10.923Z,0.30
2022-09-21T13:10:54.862Z,1.50
2022-09-21T13:13:31.946Z,1.97
2022-09-21T13:16:01.931Z,0.40
2022-09-21T13:18:36.299Z,1.13
2022-09-21T13:21:18.247Z,1.03
2022-09-21T13:23:56.253Z,2.30
2022-09-21T13:26:36.728Z,0.70
2022-09-21T13:29:30.626Z,0.67
2022-09-21T13:32:01.933Z,1.17
2022-09-21T13:34:36.741Z,0.87
2022-09-21T13:37:35.393Z,1.13
2022-09-21T13:40:50.318Z,2.50
2022-09-21T13:43:47.082Z,0.67
2022-09-21T13:47:01.704Z,1.30
2022-09-21T13:49:43.392Z,2.23
2022-09-21T13:52:28.199Z,1.00
2022-09-21T13:55:00.604Z,0.80
2022-09-21T13:57:37.848Z,0.70
2022-09-21T14:00:39.266Z,0.93
2022-09-21T14:03:22.864Z,0.80
2022-09-21T14:05:54.465Z,0.70
2022-09-21T14:08:30.881Z,1.30
2022-09-21T14:11:03.938Z,1.07
2022-09-21T14:13:37.860Z,3.67
2022-09-21T14:17:03.291Z,0.80
2022-09-21T14:20:06.512Z,1.50
2022-09-21T14:22:45.367Z,1.50
2022-09-21T14:25:53.173Z,0.70
2022-09-21T14:28:38.275Z,1.33
2022-09-21T14:31:16.298Z,1.20
2022-09-21T14:33:49.646Z,3.13
2022-09-21T14:36:29.021Z,1.20
2022-09-21T14:39:02.501Z,1.33
2022-09-21T14:41:41.930Z,1.13
2022-09-21T14:44:20.744Z,1.07
2022-09-21T14:47:15.334Z,1.20
2022-09-21T14:50:27.824Z,0.77
2022-09-21T14:53:34.479Z,1.07
2022-09-21T14:56:25.598Z,0.73
2022-09-21T14:59:21.733Z,2.33
2022-09-21T15:02:00.161Z,1.23
2022-09-21T15:04:46.050Z,2.80
2022-09-21T15:07:59.613Z,1.23
2022-09-21T15:10:53.027Z,0.50
2022-09-21T15:13:46.469Z,2.13
2022-09-21T15:16:39.634Z,1.70
2022-09-21T15:19:24.668Z,0.60
2022-09-21T15:21:55.877Z,0.73
2022-09-21T15:24:29.479Z,3.03
2022-09-21T15:27:11.127Z,0.70
2022-09-21T15:29:40.219Z,0.97
2022-09-21T15:32:09.805Z,3.27
2022-09-21T15:34:38.358Z,2.03
2022-09-21T15:37:18.046Z,1.23
2022-09-21T15:39:46.161Z,1.93
2022-09-21T15:42:22.775Z,1.00
2022-09-21T15:44:55.117Z,2.37
2022-09-21T15:47:28.398Z,1.20
2022-09-21T15:49:57.070Z,1.30
2022-09-21T15:52:35.486Z,1.30
2022-09-21T15:55:12.626Z,1.03
2022-09-21T15:57:44.065Z,3.30
2022-09-21T16:00:32.210Z,1.40
2022-09-21T16:03:06.628Z,0.63
2022-09-21T16:05:45.781Z,2.03
2022-09-21T16:08:28.218Z,0.97
2022-09-21T16:11:23.141Z,1.40
2022-09-21T16:14:22.768Z,0.70
2022-09-21T16:17:22.018Z,0.97
2022-09-21T16:20:20.482Z,0.70
2022-09-21T16:22:50.897Z,0.73
2022-09-21T16:25:34.553Z,1.33
2022-09-21T16:28:05.635Z,1.53
2022-09-21T16:30:46.095Z,4.83
2022-09-21T16:34:02.545Z,1.23
2022-09-21T16:36:43.224Z,2.90
2022-09-21T16:39:17.531Z,0.60
2022-09-21T16:41:53.204Z,1.17
2022-09-21T16:44:25.419Z,2.37
2022-09-21T16:46:57.745Z,1.13
2022-09-21T16:49:30.668Z,1.13
2022-09-21T16:52:01.300Z,1.10
2022-09-21T16:54:30.822Z,3.40
2022-09-21T16:57:02.703Z,1.00
2022-09-21T16:59:33.098Z,2.10
2022-09-21T17:02:04.224Z,0.60
2022-09-21T17:04:34.909Z,2.80
2022-09-21T17:07:05.921Z,0.73
2022-09-21T17:09:37.985Z,2.13
2022-09-21T17:12:08.610Z,1.07
2022-09-21T17:14:41.877Z,1.20
2022-09-21T17:17:17.653Z,2.00
2022-09-21T17:19:49.205Z,1.73
2022-09-21T17:22:20.044Z,1.67
2022-09-21T17:24:52.080Z,0.87
2022-09-21T17:27:23.765Z,1.13
2022-09-21T17:29:54.230Z,1.80
2022-09-21T17:32:24.908Z,3.13
2022-09-21T17:35:01.738Z,4.13
2022-09-21T17:37:33.789Z,1.47
2022-09-21T17:40:04.953Z,2.00
2022-09-21T17:42:42.531Z,2.90
2022-09-21T17:45:25.111Z,1.37
2022-09-21T17:47:54.095Z,2.47
2022-09-21T17:50:26.926Z,0.83
2022-09-21T17:53:15.403Z,1.70
2022-09-21T17:55:53.780Z,2.70
2022-09-21T17:58:43.468Z,2.90
2022-09-21T18:01:24.184Z,1.80
2022-09-21T18:03:53.904Z,1.63
2022-09-21T18:06:22.821Z,2.17
2022-09-21T18:08:53.764Z,5.13
2022-09-21T18:12:01.751Z,1.10
2022-09-21T18:14:41.157Z,1.73
2022-09-21T18:17:33.542Z,2.80
2022-09-21T18:20:20.057Z,1.73
2022-09-21T18:23:02.193Z,1.73
2022-09-21T18:25:35.771Z,2.37
2022-09-21T18:28:14.939Z,1.57
2022-09-21T18:30:51.513Z,1.53
2022-09-21T18:33:28.125Z,3.43
2022-09-21T18:36:09.096Z,4.97
2022-09-21T18:38:44.235Z,11.07
2022-09-21T18:41:32.264Z,13.33
2022-09-21T18:44:13.043Z,9.67
2022-09-21T18:46:54.192Z,9.90
2022-09-21T18:49:49.462Z,9.03
2022-09-21T18:52:31.898Z,4.43
2022-09-21T18:55:00.343Z,3.87
2022-09-21T18:57:32.439Z,7.37
2022-09-21T19:00:02.058Z,7.20
2022-09-21T19:02:30.830Z,2.43
2022-09-21T19:05:00.301Z,3.37
2022-09-21T19:07:40.036Z,4.73
2022-09-21T19:10:18.942Z,4.23
2022-09-21T19:13:06.720Z,3.33
2022-09-21T19:16:01.682Z,3.77
2022-09-21T19:18:41.282Z,2.07
2022-09-21T19:21:23.909Z,2.37
2022-09-21T19:24:07.493Z,2.40
2022-09-21T19:26:50.145Z,4.27
2022-09-21T19:29:50.950Z,3.43
2022-09-21T19:32:25.782Z,2.10
2022-09-21T19:34:57.226Z,3.13
2022-09-21T19:37:27.567Z,2.97
2022-09-21T19:39:56.201Z,1.50
2022-09-21T19:42:34.285Z,1.90
2022-09-21T19:45:17.780Z,2.23
2022-09-21T19:47:53.348Z,1.73
2022-09-21T19:50:27.639Z,4.37
2022-09-21T19:53:16.383Z,2.27
2022-09-21T19:56:07.794Z,2.20
2022-09-21T19:58:54.235Z,3.67
2022-09-21T20:01:24.097Z,2.47
2022-09-21T20:03:53.648Z,4.67
2022-09-21T20:06:26.111Z,2.03
2022-09-21T20:09:02.598Z,1.80
2022-09-21T20:11:42.948Z,1.43
2022-09-21T20:14:27.031Z,2.67
2022-09-21T20:17:00.618Z,1.70
2022-09-21T20:19:44.395Z,5.03
2022-09-21T20:22:15.903Z,2.53
2022-09-21T20:24:54.630Z,3.40
2022-09-21T20:27:34.588Z,1.70
2022-09-21T20:30:03.364Z,2.80
2022-09-21T20:32:34.029Z,2.00
2022-09-21T20:35:02.035Z,6.03
2022-09-21T20:37:30.205Z,1.60
2022-09-21T20:39:58.212Z,1.87
2022-09-21T20:42:26.814Z,2.90
2022-09-21T20:44:55.266Z,2.73
2022-09-21T20:47:23.684Z,2.17
2022-09-21T20:49:53.002Z,3.27
2022-09-21T20:52:20.938Z,3.53
2022-09-21T20:54:49.722Z,1.70
2022-09-21T20:57:18.020Z,4.17
2022-09-21T20:59:46.116Z,3.43
2022-09-21T21:02:16.527Z,2.77
2022-09-21T21:04:44.867Z,2.37
2022-09-21T21:07:14.177Z,2.97
2022-09-21T21:09:42.160Z,1.80
2022-09-21T21:12:10.548Z,2.10
2022-09-21T21:14:38.542Z,3.40
2022-09-21T21:17:07.081Z,3.20
2022-09-21T21:19:35.533Z,2.33
2022-09-21T21:22:03.529Z,4.47
2022-09-21T21:24:42.019Z,2.80
2022-09-21T21:27:16.215Z,2.57
2022-09-21T21:29:46.065Z,3.53
2022-09-21T21:32:15.122Z,1.40
2022-09-21T21:34:43.427Z,2.73
2022-09-21T21:37:12.312Z,2.60
2022-09-21T21:39:41.629Z,4.90
2022-09-21T21:42:10.326Z,5.47
2022-09-21T21:44:38.639Z,3.47
2022-09-21T21:47:27.840Z,6.77
2022-09-21T21:49:55.212Z,8.00
2022-09-21T21:52:23.443Z,3.37
2022-09-21T21:54:52.769Z,5.10
2022-09-21T21:57:20.743Z,3.87
2022-09-21T21:59:48.693Z,4.87
2022-09-21T22:02:16.808Z,4.63
2022-09-21T22:05:09.057Z,6.17
2022-09-21T22:07:37.743Z,3.83
2022-09-21T22:10:09.822Z,3.77
2022-09-21T22:12:37.909Z,4.60
2022-09-21T22:15:07.044Z,4.70
2022-09-21T22:17:36.217Z,4.30
2022-09-21T22:20:04.473Z,5.27
2022-09-21T22:22:32.491Z,5.53
2022-09-21T22:25:00.467Z,6.63
2022-09-21T22:27:29.931Z,3.13
2022-09-21T22:29:57.933Z,2.97
2022-09-21T22:32:26.113Z,3.53
2022-09-21T22:34:54.259Z,2.73
2022-09-21T22:37:22.275Z,3.87
2022-09-21T22:39:50.268Z,3.10
2022-09-21T22:42:18.219Z,4.27
2022-09-21T22:44:47.821Z,3.97
2022-09-21T22:47:15.770Z,5.13
2022-09-21T22:49:43.774Z,3.17
2022-09-21T22:52:11.720Z,3.40
2022-09-21T22:54:39.702Z,3.03
2022-09-21T22:57:07.682Z,2.43
2022-09-21T22:59:35.718Z,3.57
2022-09-21T23:02:08.388Z,2.40
2022-09-21T23:04:36.525Z,2.43
2022-09-21T23:07:04.691Z,2.40
2022-09-21T23:09:32.702Z,2.77
2022-09-21T23:12:00.893Z,1.80
2022-09-21T23:14:28.902Z,4.37
2022-09-21T23:16:56.878Z,1.67
2022-09-21T23:19:26.364Z,2.17
2022-09-21T23:21:54.912Z,1.83
2022-09-21T23:24:22.893Z,3.20
2022-09-21T23:26:51.631Z,2.73
2022-09-21T23:29:19.832Z,2.97
2022-09-21T23:31:49.954Z,5.00
2022-09-21T23:34:18.241Z,2.17
2022-09-21T23:36:47.611Z,2.40
2022-09-21T23:39:16.681Z,5.93
2022-09-21T23:41:45.421Z,4.00
2022-09-21T23:44:13.875Z,3.27
2022-09-21T23:46:43.152Z,3.13
2022-09-21T23:49:11.657Z,2.00
2022-09-21T23:51:40.345Z,2.10
2022-09-21T23:54:10.797Z,2.83
2022-09-21T23:56:38.930Z,2.93
2022-09-21T23:59:06.928Z,2.03
